| time (UTC) | temp F | wind direction | speed MPH | gust MPH | rain 1hr in | rain 24hr in | rain mn in | humidity % | barometer mb |
| 20260502162346 | 61 | 58 | 5.0 | 9.0 | 0.00 | 0.00 | 0.00 | 48 | 1018.2 |
| 20260502161845 | 61 | 317 | 3.0 | 8.0 | 0.00 | 0.00 | 0.00 | 50 | 1018.2 |
| 20260502161345 | 61 | 355 | 3.0 | 8.0 | 0.00 | 0.00 | 0.00 | 49 | 1018.2 |
| 20260502160903 | 61 | 56 | 3.0 | 10.0 | 0.00 | 0.00 | 0.00 | 49 | 1018.3 |
| 20260502160343 | 60 | 25 | 5.0 | 10.0 | 0.00 | 0.00 | 0.00 | 49 | 1018.3 |
| 20260502151848 | 59 | 355 | 3.0 | 11.0 | 0.00 | 0.00 | 0.00 | 48 | 1018.0 |
| 20260502151348 | 59 | 360 | 2.0 | 15.0 | 0.00 | 0.00 | 0.00 | 50 | 1017.8 |
| 20260502150907 | 60 | 46 | 3.0 | 13.0 | 0.00 | 0.00 | 0.00 | 49 | 1017.8 |
| 20260502150346 | 60 | 17 | 5.0 | 12.0 | 0.00 | 0.00 | 0.00 | 46 | 1017.6 |
| 20260502130342 | 55 | 16 | 2.0 | 8.0 | 0.00 | 0.00 | 0.00 | 65 | 1017.2 |
| 20260502123334 | 53 | 48 | 1.0 | 7.0 | 0.00 | 0.00 | 0.00 | 68 | 1017.1 |
| 20260502122829 | 53 | 14 | 3.0 | 7.0 | 0.00 | 0.00 | 0.00 | 69 | 1016.8 |
| 20260502122350 | 53 | 329 | 2.0 | 5.0 | 0.00 | 0.00 | 0.00 | 68 | 1016.8 |
| 20260502121908 | 52 | 346 | 1.0 | 6.0 | 0.00 | 0.00 | 0.00 | 69 | 1016.9 |
| 20260502121407 | 52 | 32 | 2.0 | 6.0 | 0.00 | 0.00 | 0.00 | 69 | 1017.0 |
| 20260502120841 | 52 | 9 | 2.0 | 8.0 | 0.00 | 0.00 | 0.00 | 69 | 1016.8 |
| 20260502120401 | 52 | 9 | 1.0 | 8.0 | 0.00 | 0.00 | 0.00 | 69 | 1016.8 |
| 20260502115835 | 52 | 21 | 1.0 | 5.0 | 0.00 | 0.00 | 0.00 | 69 | 1016.8 |
| 20260502115335 | 52 | 317 | 1.0 | 3.0 | 0.00 | 0.00 | 0.00 | 68 | 1016.9 |
| 20260502114833 | 52 | 19 | 1.0 | 3.0 | 0.00 | 0.00 | 0.00 | 69 | 1016.8 |
| 20260502114410 | 52 | 5 | 1.0 | 4.0 | 0.00 | 0.00 | 0.00 | 69 | 1016.7 |
| 20260502113846 | 52 | 67 | 1.0 | 4.0 | 0.00 | 0.00 | 0.00 | 69 | 1016.8 |
| 20260502113347 | 52 | 9 | 1.0 | 3.0 | 0.00 | 0.00 | 0.00 | 69 | 1016.8 |
| 20260502112842 | 52 | 336 | 2.0 | 3.0 | 0.00 | 0.00 | 0.00 | 70 | 1016.8 |
| 20260502112343 | 52 | 52 | 1.0 | 4.0 | 0.00 | 0.00 | 0.00 | 68 | 1016.7 |
| 20260502111841 | 52 | 289 | 2.0 | 4.0 | 0.00 | 0.00 | 0.00 | 69 | 1016.7 |
| 20260502111341 | 52 | 18 | 0.0 | 4.0 | 0.00 | 0.00 | 0.00 | 69 | 1016.7 |
| 20260502110858 | 52 | 18 | 0.0 | 3.0 | 0.00 | 0.00 | 0.00 | 68 | 1016.6 |
| 20260502110339 | 52 | 48 | 1.0 | 3.0 | 0.00 | 0.00 | 0.00 | 68 | 1016.7 |
| 20260502105831 | 52 | 48 | 1.0 | 3.0 | 0.00 | 0.00 | 0.00 | 70 | 1016.6 |
| 20260502105331 | 52 | 65 | 1.0 | 3.0 | 0.00 | 0.00 | 0.00 | 68 | 1016.5 |
| 20260502104909 | 52 | 17 | 1.0 | 3.0 | 0.00 | 0.00 | 0.00 | 65 | 1016.3 |
| 20260502104348 | 52 | 345 | 1.0 | 3.0 | 0.00 | 0.00 | 0.00 | 65 | 1016.3 |
| 20260502103904 | 53 | 14 | 1.0 | 6.0 | 0.00 | 0.00 | 0.00 | 65 | 1016.2 |
| 20260502103343 | 53 | 24 | 2.0 | 5.0 | 0.00 | 0.00 | 0.00 | 64 | 1016.3 |
| 20260502102835 | 53 | 79 | 1.0 | 5.0 | 0.00 | 0.00 | 0.00 | 66 | 1016.3 |
| 20260502102335 | 53 | 313 | 2.0 | 9.0 | 0.00 | 0.00 | 0.00 | 65 | 1016.4 |
| 20260502101834 | 53 | 338 | 2.0 | 9.0 | 0.00 | 0.00 | 0.00 | 64 | 1016.2 |
| 20260502101334 | 53 | 31 | 2.0 | 8.0 | 0.00 | 0.00 | 0.00 | 63 | 1016.4 |
| 20260502100831 | 53 | 13 | 2.0 | 5.0 | 0.00 | 0.00 | 0.00 | 64 | 1016.6 |
| 20260502100352 | 53 | 328 | 3.0 | 4.0 | 0.00 | 0.00 | 0.00 | 63 | 1016.5 |
| 20260502091334 | 53 | 46 | 2.0 | 10.0 | 0.00 | 0.00 | 0.00 | 62 | 1016.3 |
| 20260502090833 | 53 | 360 | 2.0 | 11.0 | 0.00 | 0.00 | 0.00 | 63 | 1016.1 |
| 20260502090352 | 53 | 26 | 3.0 | 11.0 | 0.00 | 0.00 | 0.00 | 62 | 1016.2 |
| 20260502071358 | 55 | 325 | 1.0 | 5.0 | 0.00 | 0.00 | 0.00 | 60 | 1016.7 |
| 20260502070854 | 55 | 321 | 2.0 | 5.0 | 0.00 | 0.00 | 0.00 | 60 | 1016.8 |
| 20260502070335 | 55 | 346 | 1.0 | 5.0 | 0.00 | 0.00 | 0.00 | 61 | 1017.2 |
| 20260502065909 | 55 | 311 | 2.0 | 5.0 | 0.00 | 0.00 | 0.00 | 60 | 1017.4 |
| 20260502065348 | 55 | 355 | 1.0 | 6.0 | 0.00 | 0.00 | 0.00 | 61 | 1017.3 |
| 20260502064909 | 55 | 86 | 2.0 | 6.0 | 0.00 | 0.00 | 0.00 | 61 | 1017.4 |
| 20260502064407 | 55 | 335 | 1.0 | 10.0 | 0.00 | 0.00 | 0.00 | 60 | 1017.4 |
| 20260502063844 | 55 | 26 | 3.0 | 10.0 | 0.00 | 0.00 | 0.00 | 57 | 1017.2 |
| 20260502063345 | 55 | 59 | 2.0 | 6.0 | 0.00 | 0.00 | 0.00 | 59 | 1017.1 |
| 20260502062840 | 55 | 5 | 2.0 | 5.0 | 0.00 | 0.00 | 0.00 | 59 | 1017.0 |
| 20260502062400 | 55 | 360 | 2.0 | 5.0 | 0.00 | 0.00 | 0.00 | 57 | 1017.0 |
| 20260502061856 | 56 | 67 | 1.0 | 6.0 | 0.00 | 0.00 | 0.00 | 55 | 1017.0 |
| 20260502061335 | 56 | 310 | 2.0 | 6.0 | 0.00 | 0.00 | 0.00 | 58 | 1017.1 |
| 20260502060834 | 56 | 53 | 3.0 | 8.0 | 0.00 | 0.00 | 0.00 | 58 | 1017.0 |
| 20260502060333 | 56 | 49 | 2.0 | 8.0 | 0.00 | 0.00 | 0.00 | 58 | 1017.2 |
| 20260502055831 | 56 | 317 | 2.0 | 5.0 | 0.00 | 0.00 | 0.00 | 59 | 1017.4 |
| 20260502055352 | 56 | 336 | 2.0 | 5.0 | 0.00 | 0.00 | 0.00 | 58 | 1017.3 |
| 20260502054847 | 56 | 19 | 0.0 | 4.0 | 0.00 | 0.00 | 0.00 | 58 | 1017.3 |
| 20260502054347 | 56 | 19 | 1.0 | 10.0 | 0.00 | 0.00 | 0.00 | 58 | 1017.3 |
| 20260502053843 | 56 | 344 | 1.0 | 10.0 | 0.00 | 0.00 | 0.00 | 59 | 1017.1 |
| 20260502053343 | 56 | 298 | 2.0 | 10.0 | 0.00 | 0.00 | 0.00 | 55 | 1017.0 |
| 20260502052836 | 56 | 13 | 2.0 | 9.0 | 0.00 | 0.00 | 0.00 | 61 | 1016.9 |
| 20260502052336 | 56 | 300 | 2.0 | 5.0 | 0.00 | 0.00 | 0.00 | 55 | 1016.9 |
| 20260502051834 | 56 | 49 | 2.0 | 7.0 | 0.00 | 0.00 | 0.00 | 57 | 1016.9 |
| 20260502051334 | 56 | 301 | 2.0 | 7.0 | 0.00 | 0.00 | 0.00 | 60 | 1017.0 |
| 20260502050834 | 57 | 300 | 2.0 | 4.0 | 0.00 | 0.00 | 0.00 | 61 | 1016.9 |
| 20260502045841 | 57 | 88 | 1.0 | 6.0 | 0.00 | 0.00 | 0.00 | 55 | 1016.8 |
| 20260502045341 | 57 | 355 | 1.0 | 6.0 | 0.00 | 0.00 | 0.00 | 55 | 1016.9 |
| 20260502044844 | 57 | 350 | 1.0 | 8.0 | 0.00 | 0.00 | 0.00 | 56 | 1016.9 |
| 20260502044343 | 57 | 15 | 3.0 | 8.0 | 0.00 | 0.00 | 0.00 | 53 | 1017.0 |
| 20260502043838 | 58 | 204 | 3.0 | 7.0 | 0.00 | 0.00 | 0.00 | 54 | 1016.9 |
| 20260502043339 | 58 | 9 | 2.0 | 6.0 | 0.00 | 0.00 | 0.00 | 57 | 1017.1 |
| 20260502042851 | 58 | 5 | 2.0 | 4.0 | 0.00 | 0.00 | 0.00 | 53 | 1017.0 |
| 20260502042348 | 58 | 340 | 2.0 | 4.0 | 0.00 | 0.00 | 0.00 | 53 | 1016.9 |
| 20260502041907 | 58 | 76 | 1.0 | 3.0 | 0.00 | 0.00 | 0.00 | 55 | 1017.0 |
| 20260502041346 | 58 | 76 | 1.0 | 4.0 | 0.00 | 0.00 | 0.00 | 53 | 1017.1 |
| 20260502040846 | 58 | 84 | 2.0 | 4.0 | 0.00 | 0.00 | 0.00 | 53 | 1017.0 |
| 20260502040346 | 58 | 95 | 2.0 | 4.0 | 0.00 | 0.00 | 0.00 | 54 | 1016.9 |
| 20260502035841 | 58 | 82 | 2.0 | 4.0 | 0.00 | 0.00 | 0.00 | 55 | 1016.9 |
| 20260502035341 | 59 | 269 | 1.0 | 4.0 | 0.00 | 0.00 | 0.00 | 59 | 1017.1 |
| 20260502034837 | 59 | 340 | 1.0 | 4.0 | 0.00 | 0.00 | 0.00 | 60 | 1017.1 |
| 20260502034336 | 59 | 5 | 1.0 | 2.0 | 0.00 | 0.00 | 0.00 | 59 | 1017.0 |
| 20260502033834 | 59 | 355 | 1.0 | 6.0 | 0.00 | 0.00 | 0.00 | 55 | 1017.0 |
| 20260502033339 | 59 | 21 | 2.0 | 6.0 | 0.00 | 0.00 | 0.00 | 57 | 1017.0 |
| 20260502032834 | 59 | 113 | 1.0 | 3.0 | 0.00 | 0.00 | 0.00 | 57 | 1017.0 |
| 20260502032355 | 60 | 133 | 1.0 | 16.0 | 0.00 | 0.00 | 0.00 | 58 | 1017.1 |
| 20260502031852 | 60 | 5 | 1.0 | 16.0 | 0.00 | 0.00 | 0.00 | 58 | 1017.1 |
| 20260502031330 | 60 | 5 | 2.0 | 6.0 | 0.00 | 0.00 | 0.00 | 59 | 1016.9 |
| 20260502030848 | 60 | 55 | 2.0 | 8.0 | 0.00 | 0.00 | 0.00 | 59 | 1016.7 |
| 20260502030350 | 60 | 121 | 3.0 | 8.0 | 0.00 | 0.00 | 0.00 | 61 | 1016.7 |
| 20260502025844 | 60 | 70 | 3.0 | 9.0 | 0.00 | 0.00 | 0.00 | 62 | 1016.6 |
| 20260502025345 | 60 | 78 | 3.0 | 10.0 | 0.00 | 0.00 | 0.00 | 62 | 1016.7 |
| 20260502024843 | 60 | 279 | 3.0 | 10.0 | 0.00 | 0.00 | 0.00 | 64 | 1016.5 |
| 20260502024339 | 60 | 340 | 2.0 | 9.0 | 0.00 | 0.00 | 0.00 | 62 | 1016.2 |
| 20260502023837 | 60 | 54 | 2.0 | 10.0 | 0.00 | 0.00 | 0.00 | 61 | 1016.3 |
| 20260502023337 | 60 | 26 | 3.0 | 10.0 | 0.00 | 0.00 | 0.00 | 62 | 1016.3 |
| 20260502022833 | 61 | 5 | 3.0 | 10.0 | 0.00 | 0.00 | 0.00 | 61 | 1016.4 |
| 20260502022333 | 61 | 299 | 2.0 | 9.0 | 0.00 | 0.00 | 0.00 | 62 | 1016.5 |
| 20260502021830 | 61 | 5 | 2.0 | 9.0 | 0.00 | 0.00 | 0.00 | 63 | 1016.4 |
| 20260502021410 | 61 | 318 | 2.0 | 10.0 | 0.00 | 0.00 | 0.00 | 62 | 1016.3 |
| 20260502020906 | 61 | 333 | 2.0 | 10.0 | 0.00 | 0.00 | 0.00 | 64 | 1016.3 |
| 20260502020406 | 61 | 74 | 3.0 | 8.0 | 0.00 | 0.00 | 0.00 | 66 | 1016.3 |
| 20260502015841 | 61 | 322 | 2.0 | 11.0 | 0.00 | 0.00 | 0.00 | 64 | 1016.2 |
| 20260502015401 | 61 | 341 | 2.0 | 11.0 | 0.00 | 0.00 | 0.00 | 66 | 1016.2 |
| 20260502014843 | 61 | 331 | 2.0 | 12.0 | 0.00 | 0.00 | 0.00 | 67 | 1016.3 |
| 20260502014344 | 61 | 294 | 2.0 | 12.0 | 0.00 | 0.00 | 0.00 | 67 | 1016.2 |
| 20260502013839 | 62 | 338 | 2.0 | 9.0 | 0.00 | 0.00 | 0.00 | 67 | 1016.1 |
| 20260502013339 | 62 | 322 | 1.0 | 5.0 | 0.00 | 0.00 | 0.00 | 65 | 1016.1 |
| 20260502012831 | 62 | 315 | 1.0 | 5.0 | 0.00 | 0.00 | 0.00 | 63 | 1016.0 |
| 20260502012331 | 62 | 312 | 2.0 | 5.0 | 0.00 | 0.00 | 0.00 | 64 | 1016.1 |
| 20260502011848 | 62 | 75 | 1.0 | 4.0 | 0.00 | 0.00 | 0.00 | 62 | 1016.0 |
| 20260502011348 | 62 | 13 | 1.0 | 3.0 | 0.00 | 0.00 | 0.00 | 61 | 1016.0 |
| 20260502010846 | 62 | 10 | 1.0 | 3.0 | 0.00 | 0.00 | 0.00 | 61 | 1016.0 |
| 20260502010346 | 62 | 355 | 1.0 | 3.0 | 0.00 | 0.00 | 0.00 | 61 | 1015.6 |
| 20260502005841 | 62 | 360 | 0.0 | 7.0 | 0.00 | 0.00 | 0.00 | 61 | 1015.4 |
| 20260502005342 | 62 | 9 | 1.0 | 3.0 | 0.00 | 0.00 | 0.00 | 61 | 1015.3 |
| 20260502004840 | 62 | 302 | 1.0 | 3.0 | 0.00 | 0.00 | 0.00 | 61 | 1015.3 |
| 20260502004340 | 63 | 326 | 0.0 | 2.0 | 0.00 | 0.00 | 0.00 | 61 | 1015.4 |
| 20260502003842 | 63 | 327 | 0.0 | 3.0 | 0.00 | 0.00 | 0.00 | 60 | 1015.4 |
| 20260502003343 | 63 | 323 | 0.0 | 4.0 | 0.00 | 0.00 | 0.00 | 60 | 1015.1 |
| 20260502002837 | 63 | 312 | 1.0 | 4.0 | 0.00 | 0.00 | 0.00 | 60 | 1015.1 |
| 20260502002336 | 63 | 286 | 0.0 | 2.0 | 0.00 | 0.00 | 0.00 | 60 | 1015.0 |
| 20260502001834 | 64 | 286 | 0.0 | 2.0 | 0.00 | 0.00 | 0.00 | 62 | 1015.2 |
| 20260502001334 | 64 | 271 | 1.0 | 2.0 | 0.00 | 0.00 | 0.00 | 59 | 1015.0 |
| 20260502000830 | 64 | 301 | 1.0 | 2.0 | 0.00 | 0.00 | 0.00 | 58 | 1014.8 |
| 20260502000351 | 65 | 299 | 0.0 | 5.0 | 0.00 | 0.00 | 0.00 | 57 | 1014.7 |
| 20260501235845 | 65 | 282 | 327.0 | 327.0 | 0.00 | 0.00 | 0.00 | 55 | 1014.7 |
| 20260501235329 | 65 | 308 | 1.0 | 4.0 | 0.00 | 0.00 | 0.00 | 57 | 1014.9 |
| 20260501234847 | 65 | 307 | 1.0 | 5.0 | 0.00 | 0.00 | 0.00 | 54 | 1014.9 |
| 20260501234346 | 65 | 334 | 1.0 | 5.0 | 0.00 | 0.00 | 0.00 | 56 | 1015.0 |
| 20260501233905 | 65 | 344 | 1.0 | 3.0 | 0.00 | 0.00 | 0.00 | 55 | 1014.7 |
| 20260501233346 | 66 | 122 | 0.0 | 3.0 | 0.00 | 0.00 | 0.00 | 54 | 1014.8 |
| 20260501232841 | 66 | 339 | 1.0 | 3.0 | 0.00 | 0.00 | 0.00 | 56 | 1014.9 |
| 20260501232357 | 66 | 319 | 1.0 | 3.0 | 0.00 | 0.00 | 0.00 | 54 | 1015.0 |
| 20260501231839 | 66 | 307 | 0.0 | 3.0 | 0.00 | 0.00 | 0.00 | 55 | 1015.1 |
| 20260501231338 | 66 | 298 | 1.0 | 4.0 | 0.00 | 0.00 | 0.00 | 52 | 1014.9 |
| 20260501230835 | 66 | 306 | 1.0 | 4.0 | 0.00 | 0.00 | 0.00 | 52 | 1014.9 |
| 20260501230336 | 66 | 298 | 1.0 | 4.0 | 0.00 | 0.00 | 0.00 | 52 | 1014.9 |
| 20260501225831 | 66 | 5 | 1.0 | 4.0 | 0.00 | 0.00 | 0.00 | 53 | 1014.7 |
| 20260501225351 | 66 | 9 | 1.0 | 4.0 | 0.00 | 0.00 | 0.00 | 51 | 1014.5 |
| 20260501224908 | 67 | 342 | 0.0 | 4.0 | 0.00 | 0.00 | 0.00 | 54 | 1014.4 |
| 20260501224347 | 67 | 355 | 1.0 | 3.0 | 0.00 | 0.00 | 0.00 | 53 | 1014.2 |
| 20260501223846 | 67 | 325 | 1.0 | 5.0 | 0.00 | 0.00 | 0.00 | 53 | 1014.2 |
| 20260501223347 | 67 | 347 | 2.0 | 6.0 | 0.00 | 0.00 | 0.00 | 53 | 1014.2 |
| 20260501222842 | 67 | 323 | 2.0 | 6.0 | 0.00 | 0.00 | 0.00 | 57 | 1014.2 |
| 20260501222342 | 67 | 342 | 2.0 | 5.0 | 0.00 | 0.00 | 0.00 | 56 | 1014.2 |
| 20260501221837 | 68 | 324 | 2.0 | 5.0 | 0.00 | 0.00 | 0.00 | 54 | 1014.1 |
| 20260501221336 | 68 | 5 | 2.0 | 6.0 | 0.00 | 0.00 | 0.00 | 54 | 1014.0 |
| 20260501220834 | 68 | 344 | 1.0 | 6.0 | 0.00 | 0.00 | 0.00 | 55 | 1014.0 |
| 20260501220354 | 68 | 296 | 2.0 | 5.0 | 0.00 | 0.00 | 0.00 | 55 | 1014.1 |
| 20260501215831 | 68 | 342 | 2.0 | 7.0 | 0.00 | 0.00 | 0.00 | 55 | 1013.8 |
| 20260501215331 | 69 | 42 | 2.0 | 7.0 | 0.00 | 0.00 | 0.00 | 54 | 1014.1 |
| 20260501214851 | 69 | 5 | 1.0 | 6.0 | 0.00 | 0.00 | 0.00 | 57 | 1014.2 |
| 20260501214346 | 69 | 5 | 2.0 | 6.0 | 0.00 | 0.00 | 0.00 | 53 | 1014.4 |
| 20260501213842 | 69 | 315 | 2.0 | 10.0 | 0.00 | 0.00 | 0.00 | 51 | 1014.5 |
| 20260501213343 | 70 | 325 | 3.0 | 10.0 | 0.00 | 0.00 | 0.00 | 50 | 1014.7 |
| 20260501212839 | 70 | 332 | 2.0 | 3.0 | 0.00 | 0.00 | 0.00 | 55 | 1014.7 |
| 20260501212359 | 70 | 323 | 0.0 | 6.0 | 0.00 | 0.00 | 0.00 | 55 | 1014.7 |
| 20260501211856 | 70 | 134 | 1.0 | 6.0 | 0.00 | 0.00 | 0.00 | 51 | 1014.8 |
| 20260501211355 | 70 | 227 | 0.0 | 3.0 | 0.00 | 0.00 | 0.00 | 51 | 1015.0 |
| 20260501210831 | 70 | 232 | 1.0 | 2.0 | 0.00 | 0.00 | 0.00 | 53 | 1015.0 |
| 20260501210352 | 70 | 232 | 1.0 | 5.0 | 0.00 | 0.00 | 0.00 | 53 | 1015.0 |
| 20260501205846 | 71 | 231 | 1.0 | 5.0 | 0.00 | 0.00 | 0.00 | 53 | 1015.0 |
| 20260501205345 | 70 | 180 | 2.0 | 4.0 | 0.00 | 0.00 | 0.00 | 54 | 1015.2 |
| 20260501204843 | 70 | 201 | 1.0 | 4.0 | 0.00 | 0.00 | 0.00 | 53 | 1015.3 |
| 20260501204343 | 70 | 126 | 1.0 | 4.0 | 0.00 | 0.00 | 0.00 | 53 | 1015.3 |
| 20260501203838 | 70 | 192 | 2.0 | 6.0 | 0.00 | 0.00 | 0.00 | 51 | 1015.4 |
| 20260501203341 | 71 | 212 | 2.0 | 6.0 | 0.00 | 0.00 | 0.00 | 51 | 1015.3 |
| 20260501202839 | 70 | 217 | 3.0 | 6.0 | 0.00 | 0.00 | 0.00 | 50 | 1015.4 |
| 20260501202400 | 71 | 198 | 2.0 | 5.0 | 0.00 | 0.00 | 0.00 | 53 | 1015.5 |
| 20260501201834 | 71 | 272 | 2.0 | 6.0 | 0.00 | 0.00 | 0.00 | 49 | 1015.4 |
| 20260501201333 | 71 | 174 | 3.0 | 7.0 | 0.00 | 0.00 | 0.00 | 48 | 1015.6 |
| 20260501200850 | 70 | 119 | 2.0 | 7.0 | 0.00 | 0.00 | 0.00 | 49 | 1015.6 |
| 20260501200349 | 70 | 147 | 2.0 | 7.0 | 0.00 | 0.00 | 0.00 | 51 | 1015.8 |
| 20260501195841 | 70 | 157 | 3.0 | 7.0 | 0.00 | 0.00 | 0.00 | 48 | 1015.9 |
| 20260501195401 | 70 | 158 | 3.0 | 6.0 | 0.00 | 0.00 | 0.00 | 49 | 1016.0 |
| 20260501194858 | 70 | 155 | 1.0 | 8.0 | 0.00 | 0.00 | 0.00 | 52 | 1016.0 |
| 20260501194337 | 70 | 155 | 1.0 | 8.0 | 0.00 | 0.00 | 0.00 | 50 | 1016.1 |
| 20260501193835 | 70 | 137 | 2.0 | 7.0 | 0.00 | 0.00 | 0.00 | 47 | 1016.1 |
| 20260501193336 | 70 | 149 | 2.0 | 5.0 | 0.00 | 0.00 | 0.00 | 50 | 1016.1 |
| 20260501192830 | 69 | 109 | 2.0 | 6.0 | 0.00 | 0.00 | 0.00 | 50 | 1016.2 |
| 20260501192349 | 69 | 88 | 2.0 | 6.0 | 0.00 | 0.00 | 0.00 | 52 | 1016.1 |
| 20260501191847 | 69 | 218 | 2.0 | 6.0 | 0.00 | 0.00 | 0.00 | 52 | 1016.1 |
| 20260501191348 | 69 | 208 | 1.0 | 5.0 | 0.00 | 0.00 | 0.00 | 52 | 1016.3 |
| 20260501190847 | 69 | 220 | 1.0 | 5.0 | 0.00 | 0.00 | 0.00 | 50 | 1016.4 |
| 20260501190347 | 69 | 192 | 2.0 | 5.0 | 0.00 | 0.00 | 0.00 | 51 | 1016.4 |
| 20260501185844 | 68 | 194 | 2.0 | 4.0 | 0.00 | 0.00 | 0.00 | 51 | 1016.3 |
| 20260501185344 | 68 | 178 | 1.0 | 3.0 | 0.00 | 0.00 | 0.00 | 53 | 1016.3 |
| 20260501184843 | 68 | 179 | 0.0 | 2.0 | 0.00 | 0.00 | 0.00 | 57 | 1016.2 |
| 20260501184344 | 68 | 176 | 1.0 | 2.0 | 0.00 | 0.00 | 0.00 | 55 | 1016.2 |
| 20260501183840 | 69 | 190 | 1.0 | 4.0 | 0.00 | 0.00 | 0.00 | 48 | 1016.1 |
| 20260501183341 | 69 | 190 | 1.0 | 4.0 | 0.00 | 0.00 | 0.00 | 53 | 1016.2 |
| 20260501182836 | 69 | 145 | 3.0 | 6.0 | 0.00 | 0.00 | 0.00 | 49 | 1016.2 |
| 20260501182334 | 69 | 146 | 4.0 | 6.0 | 0.00 | 0.00 | 0.00 | 50 | 1016.2 |
| 20260501181833 | 69 | 121 | 2.0 | 6.0 | 0.00 | 0.00 | 0.00 | 51 | 1016.4 |
| 20260501181352 | 69 | 129 | 2.0 | 3.0 | 0.00 | 0.00 | 0.00 | 50 | 1016.4 |
| 20260501180850 | 69 | 97 | 0.0 | 3.0 | 0.00 | 0.00 | 0.00 | 52 | 1016.5 |
| 20260501180411 | 69 | 111 | 2.0 | 4.0 | 0.00 | 0.00 | 0.00 | 50 | 1016.6 |
| 20260501175905 | 69 | 199 | 2.0 | 4.0 | 0.00 | 0.00 | 0.00 | 52 | 1016.6 |
| 20260501175344 | 68 | 179 | 1.0 | 4.0 | 0.00 | 0.00 | 0.00 | 51 | 1016.8 |
| 20260501174900 | 68 | 184 | 2.0 | 0.0 | 0.00 | 0.00 | 0.00 | 51 | 1016.5 |
| 20260501174337 | 68 | 186 | 2.0 | 4.0 | 0.00 | 0.00 | 0.00 | 52 | 1016.7 |
| 20260501173837 | 67 | 183 | 2.0 | 6.0 | 0.00 | 0.00 | 0.00 | 52 | 1016.8 |
| 20260501173338 | 67 | 201 | 3.0 | 6.0 | 0.00 | 0.00 | 0.00 | 51 | 1016.9 |
| 20260501172838 | 67 | 157 | 4.0 | 5.0 | 0.00 | 0.00 | 0.00 | 54 | 1016.7 |
| 20260501171831 | 68 | 139 | 1.0 | 4.0 | 0.00 | 0.00 | 0.00 | 53 | 1016.9 |
| 20260501171330 | 68 | 192 | 2.0 | 4.0 | 0.00 | 0.00 | 0.00 | 51 | 1016.9 |
| 20260501170408 | 68 | 207 | 1.0 | 3.0 | 0.00 | 0.00 | 0.00 | 51 | 1016.8 |
| 20260501165842 | 68 | 103 | 0.0 | 4.0 | 0.00 | 0.00 | 0.00 | 53 | 1017.0 |
| 20260501165402 | 68 | 99 | 1.0 | 6.0 | 0.00 | 0.00 | 0.00 | 50 | 1017.0 |
| 20260501164859 | 68 | 194 | 4.0 | 6.0 | 0.00 | 0.00 | 0.00 | 50 | 1017.0 |
| 20260501164334 | 68 | 121 | 3.0 | 5.0 | 0.00 | 0.00 | 0.00 | 51 | 1016.9 |
| 20260501163831 | 68 | 115 | 2.0 | 4.0 | 0.00 | 0.00 | 0.00 | 52 | 1016.9 |
| 20260501163352 | 67 | 109 | 1.0 | 5.0 | 0.00 | 0.00 | 0.00 | 50 | 1017.0 |
| 20260501162846 | 67 | 113 | 3.0 | 9.0 | 0.00 | 0.00 | 0.00 | 51 | 1016.9 |
| 20260501162406 | 67 | 124 | 4.0 | 9.0 | 0.00 | 0.00 | 0.00 | 52 | 1017.0 |